Time;durP1;ratioP1;P1;durP2;ratioP2;P2;SDS_P1;SDS_P2;PMS_P1;PMS_P2;Temp;Humidity;BMP_temperature;BMP_pressure;BME280_temperature;BME280_humidity;BME280_pressure;Samples;Min_cycle;Max_cycle;Signal;HPM_P1;HPM_P2
2024/01/19 00:00:56;;;;;;;;;;;1.50;99.90;;;;;;5072170;28;20011;-73
2024/01/19 00:03:22;;;;;;;;;;;1.50;99.90;;;;;;5058483;28;19934;-73
2024/01/19 00:05:47;;;;;;;;;;;1.90;99.90;;;;;;5093113;28;20386;-73
2024/01/19 00:08:13;;;;;;;;;;;1.90;99.90;;;;;;5088538;27;19928;-74
2024/01/19 00:10:38;;;;;;;;;;;3.20;99.90;;;;;;5088334;28;20327;-73
2024/01/19 00:13:04;;;;;;;;;;;1.40;99.90;;;;;;5088081;28;19930;-73
2024/01/19 00:15:30;;;;;;;;;;;1.70;99.90;;;;;;5103058;27;19954;-73
2024/01/19 00:17:56;;;;;;;;;;;1.40;99.90;;;;;;5070158;28;19954;-73
2024/01/19 00:20:21;;;;;;;;;;;1.70;99.90;;;;;;5068453;28;19923;-73
2024/01/19 00:22:47;;;;;;;;;;;1.40;99.90;;;;;;5069077;28;19928;-73
2024/01/19 00:25:12;;;;;;;;;;;1.80;99.90;;;;;;5070222;27;19986;-73
2024/01/19 00:27:38;;;;;;;;;;;1.50;99.90;;;;;;5071126;28;20377;-72
2024/01/19 00:30:04;;;;;;;;;;;1.60;99.90;;;;;;5087655;27;20019;-73
2024/01/19 00:32:29;;;;;;;;;;;1.50;99.90;;;;;;5087316;28;20294;-73
2024/01/19 00:34:55;;;;;;;;;;;2.00;99.90;;;;;;5105082;27;19962;-74
2024/01/19 00:37:21;;;;;;;;;;;1.60;99.90;;;;;;5071644;28;20348;-73
2024/01/19 00:39:46;;;;;;;;;;;1.70;99.90;;;;;;5100563;28;20014;-73
2024/01/19 00:42:12;;;;;;;;;;;1.70;99.90;;;;;;5083593;28;19923;-73
2024/01/19 00:44:38;;;;;;;;;;;1.80;99.90;;;;;;5085780;28;19927;-74
2024/01/19 00:47:03;;;;;;;;;;;3.50;99.90;;;;;;5085480;28;19930;-73
2024/01/19 00:49:30;;;;;;;;;;;1.90;99.90;;;;;;5068046;28;19928;-73
2024/01/19 00:51:55;;;;;;;;;;;2.70;99.90;;;;;;5065294;28;20434;-73
2024/01/19 00:54:21;;;;;;;;;;;2.40;99.90;;;;;;5103136;28;20351;-73
2024/01/19 00:56:47;;;;;;;;;;;2.00;99.90;;;;;;5081263;28;20402;-72
2024/01/19 00:59:12;;;;;;;;;;;2.10;99.90;;;;;;5085132;28;19924;-72
2024/01/19 01:01:38;;;;;;;;;;;2.50;99.90;;;;;;5066021;28;20694;-72
2024/01/19 01:04:04;;;;;;;;;;;2.10;99.90;;;;;;5065994;28;20419;-73
2024/01/19 01:06:29;;;;;;;;;;;3.00;99.90;;;;;;5082605;28;19927;-73
2024/01/19 01:08:55;;;;;;;;;;;2.60;99.90;;;;;;5068644;28;19971;-73
2024/01/19 01:11:21;;;;;;;;;;;1.80;99.90;;;;;;5065824;28;19928;-73
2024/01/19 01:13:47;;;;;;;;;;;2.70;99.90;;;;;;5083858;28;20110;-73
2024/01/19 01:16:13;;;;;;;;;;;1.10;99.90;;;;;;5082084;28;20378;-72
2024/01/19 01:18:40;;;;;;;;;;;1.90;99.90;;;;;;5084451;28;19988;-72
2024/01/19 01:21:08;;;;;;;;;;;1.70;99.90;;;;;;5083209;28;20318;-72
2024/01/19 01:23:34;;;;;;;;;;;-0.10;99.90;;;;;;5098872;27;19923;-72
2024/01/19 01:25:59;;;;;;;;;;;1.60;99.90;;;;;;5083580;28;19923;-73
2024/01/19 01:28:25;;;;;;;;;;;1.60;99.90;;;;;;5084566;28;20043;-73
2024/01/19 01:30:50;;;;;;;;;;;2.40;99.90;;;;;;5098930;27;20285;-72
2024/01/19 01:33:16;;;;;;;;;;;2.30;99.90;;;;;;5066974;28;20280;-72
2024/01/19 01:35:42;;;;;;;;;;;1.50;99.90;;;;;;5064525;28;19942;-72
2024/01/19 01:38:08;;;;;;;;;;;1.40;99.90;;;;;;5065186;28;19956;-73
2024/01/19 01:40:34;;;;;;;;;;;1.40;99.90;;;;;;5082410;28;19928;-73
2024/01/19 01:43:00;;;;;;;;;;;2.20;99.90;;;;;;5081953;28;19927;-72
2024/01/19 01:45:26;;;;;;;;;;;1.40;99.50;;;;;;5082339;28;19939;-72
2024/01/19 01:47:53;;;;;;;;;;;1.50;99.30;;;;;;5098795;28;19949;-73
2024/01/19 01:50:18;;;;;;;;;;;1.30;99.10;;;;;;5081786;28;19928;-73
2024/01/19 01:52:44;;;;;;;;;;;1.60;99.00;;;;;;5079116;28;19923;-72
2024/01/19 01:55:10;;;;;;;;;;;1.30;98.50;;;;;;5083279;28;20290;-73
2024/01/19 01:57:36;;;;;;;;;;;1.30;98.60;;;;;;5063755;28;19928;-72
2024/01/19 02:00:02;;;;;;;;;;;1.30;98.80;;;;;;5064219;28;20027;-73
2024/01/19 02:02:28;;;;;;;;;;;1.40;99.40;;;;;;5082013;28;19928;-72
2024/01/19 02:04:54;;;;;;;;;;;2.40;99.90;;;;;;5096833;28;19924;-73
2024/01/19 02:07:19;;;;;;;;;;;1.50;99.90;;;;;;5099238;27;19932;-72
2024/01/19 02:09:45;;;;;;;;;;;1.60;99.90;;;;;;5083871;28;20461;-72
2024/01/19 02:12:12;;;;;;;;;;;1.50;99.90;;;;;;5080737;28;19932;-72
2024/01/19 02:14:38;;;;;;;;;;;1.50;99.90;;;;;;5081252;28;20097;-72
2024/01/19 02:17:03;;;;;;;;;;;1.60;99.90;;;;;;5081101;28;19951;-73
2024/01/19 02:19:29;;;;;;;;;;;1.50;99.90;;;;;;5083571;28;19928;-73
2024/01/19 02:21:54;;;;;;;;;;;2.30;99.90;;;;;;5079393;28;20638;-73
2024/01/19 02:24:20;;;;;;;;;;;1.40;99.90;;;;;;5084054;28;19928;-73
2024/01/19 02:26:46;;;;;;;;;;;1.60;99.90;;;;;;5082311;28;19972;-73
2024/01/19 02:29:12;;;;;;;;;;;1.60;99.90;;;;;;5049888;28;20274;-72
2024/01/19 02:31:37;;;;;;;;;;;2.10;99.90;;;;;;5081983;28;19928;-73
2024/01/19 02:34:03;;;;;;;;;;;2.80;99.90;;;;;;5064258;28;19927;-72
2024/01/19 02:36:30;;;;;;;;;;;1.80;99.90;;;;;;5081235;28;19938;-73
2024/01/19 02:38:56;;;;;;;;;;;1.50;99.90;;;;;;5082019;28;19931;-73
2024/01/19 02:41:21;;;;;;;;;;;1.50;99.90;;;;;;5047306;28;19984;-72
2024/01/19 02:43:47;;;;;;;;;;;1.40;99.90;;;;;;5080502;28;20396;-73
2024/01/19 02:46:14;;;;;;;;;;;1.60;99.90;;;;;;5081488;28;19934;-72
2024/01/19 02:48:40;;;;;;;;;;;1.60;99.90;;;;;;5081036;28;20698;-72
2024/01/19 02:51:05;;;;;;;;;;;1.50;99.90;;;;;;5082237;28;19920;-73
2024/01/19 02:53:31;;;;;;;;;;;1.60;99.90;;;;;;5065202;28;19928;-72
2024/01/19 02:55:57;;;;;;;;;;;1.60;99.90;;;;;;5081640;28;19927;-73
2024/01/19 02:58:23;;;;;;;;;;;2.70;99.90;;;;;;5065385;28;19946;-73
2024/01/19 03:00:48;;;;;;;;;;;1.90;99.90;;;;;;5080919;28;19932;-73
2024/01/19 03:03:14;;;;;;;;;;;1.70;99.90;;;;;;5094866;28;19935;-73
2024/01/19 03:05:39;;;;;;;;;;;1.70;99.90;;;;;;5062457;28;20570;-73
2024/01/19 03:08:05;;;;;;;;;;;1.60;99.90;;;;;;5080494;28;19927;-73
2024/01/19 03:10:31;;;;;;;;;;;3.00;99.90;;;;;;5100176;28;19939;-73
2024/01/19 03:12:56;;;;;;;;;;;1.70;99.90;;;;;;5080208;28;20398;-73
2024/01/19 03:15:22;;;;;;;;;;;1.70;99.90;;;;;;5083409;28;19935;-73
2024/01/19 03:17:47;;;;;;;;;;;1.50;99.90;;;;;;5082872;28;19972;-72
2024/01/19 03:20:14;;;;;;;;;;;2.20;99.90;;;;;;5049123;27;19950;-73
2024/01/19 03:22:44;;;;;;;;;;;1.60;99.90;;;;;;5069610;28;20309;-73
2024/01/19 03:25:10;;;;;;;;;;;1.60;99.70;;;;;;5087029;28;19989;-73
2024/01/19 03:27:35;;;;;;;;;;;1.50;99.80;;;;;;5053273;28;20413;-73
2024/01/19 03:30:01;;;;;;;;;;;3.50;99.90;;;;;;5068776;28;20998;-72
2024/01/19 03:32:26;;;;;;;;;;;2.90;99.90;;;;;;5084759;28;19974;-73
2024/01/19 03:34:52;;;;;;;;;;;1.70;99.60;;;;;;5086027;28;19992;-73
2024/01/19 03:37:18;;;;;;;;;;;1.80;99.70;;;;;;5084508;28;19970;-73
2024/01/19 03:39:44;;;;;;;;;;;1.80;99.50;;;;;;5085797;28;20537;-73
2024/01/19 03:42:09;;;;;;;;;;;1.80;99.40;;;;;;5086497;28;19924;-73
2024/01/19 03:44:36;;;;;;;;;;;1.90;99.50;;;;;;5085926;28;20153;-73
2024/01/19 03:47:02;;;;;;;;;;;1.80;99.60;;;;;;5068108;28;19923;-74
2024/01/19 03:49:27;;;;;;;;;;;1.80;99.90;;;;;;5083397;28;19919;-74
2024/01/19 03:52:00;;;;;;;;;;;1.70;99.90;;;;;;5085427;28;19943;-73
2024/01/19 03:54:27;;;;;;;;;;;1.60;99.90;;;;;;5085784;27;19927;-74
2024/01/19 03:56:52;;;;;;;;;;;1.60;99.90;;;;;;5085787;28;19986;-73
2024/01/19 03:59:18;;;;;;;;;;;1.80;99.90;;;;;;5069380;28;20394;-73
2024/01/19 04:01:44;;;;;;;;;;;1.60;99.90;;;;;;5067797;27;19924;-73
2024/01/19 04:04:09;;;;;;;;;;;1.50;99.90;;;;;;5086833;28;19971;-74
2024/01/19 04:06:35;;;;;;;;;;;2.70;99.90;;;;;;5052431;28;19924;-73
2024/01/19 04:09:01;;;;;;;;;;;1.50;99.90;;;;;;5066661;28;19931;-73
2024/01/19 04:11:27;;;;;;;;;;;1.60;99.90;;;;;;5067925;28;19928;-73
2024/01/19 04:13:52;;;;;;;;;;;1.50;99.90;;;;;;5084895;27;19989;-73
2024/01/19 04:16:18;;;;;;;;;;;2.50;99.90;;;;;;5066545;28;20458;-74
2024/01/19 04:18:43;;;;;;;;;;;1.30;99.90;;;;;;5085403;28;19928;-73
2024/01/19 04:21:09;;;;;;;;;;;2.20;99.90;;;;;;5081603;28;20635;-73
2024/01/19 04:23:35;;;;;;;;;;;1.30;99.80;;;;;;5084903;28;19931;-73
2024/01/19 04:26:01;;;;;;;;;;;1.30;99.70;;;;;;5065497;27;19947;-73
2024/01/19 04:28:27;;;;;;;;;;;1.10;99.60;;;;;;5085265;28;19927;-73
2024/01/19 04:30:52;;;;;;;;;;;1.10;99.70;;;;;;5083727;28;20012;-73
2024/01/19 04:33:18;;;;;;;;;;;1.10;99.90;;;;;;5084820;28;19928;-73
2024/01/19 04:35:45;;;;;;;;;;;1.90;99.90;;;;;;5068962;28;20018;-73
2024/01/19 04:38:10;;;;;;;;;;;2.60;99.90;;;;;;5084618;28;19924;-73
2024/01/19 04:40:42;;;;;;;;;;;2.90;99.90;;;;;;5084074;28;19986;-73
2024/01/19 04:43:07;;;;;;;;;;;0.90;99.90;;;;;;5069628;28;19997;-74
2024/01/19 04:45:33;;;;;;;;;;;1.10;99.90;;;;;;5065003;28;20022;-73
2024/01/19 04:47:58;;;;;;;;;;;0.90;99.90;;;;;;5066474;28;20313;-73
2024/01/19 04:50:24;;;;;;;;;;;1.00;99.90;;;;;;5083038;28;19931;-73
2024/01/19 04:52:50;;;;;;;;;;;1.00;99.90;;;;;;5066600;27;19989;-73
2024/01/19 04:55:15;;;;;;;;;;;1.50;99.90;;;;;;5081350;28;19923;-73
2024/01/19 04:57:41;;;;;;;;;;;0.90;99.90;;;;;;5083900;28;19949;-73
2024/01/19 05:00:07;;;;;;;;;;;1.00;99.90;;;;;;5084142;28;19928;-73
2024/01/19 05:02:32;;;;;;;;;;;1.10;99.90;;;;;;5098368;27;20339;-73
2024/01/19 05:04:59;;;;;;;;;;;1.00;99.90;;;;;;5081677;27;19930;-73
2024/01/19 05:07:26;;;;;;;;;;;1.40;99.90;;;;;;5084119;27;19927;-73
2024/01/19 05:09:58;;;;;;;;;;;1.00;99.90;;;;;;5081824;28;19934;-74
2024/01/19 05:12:23;;;;;;;;;;;2.80;99.90;;;;;;5067857;28;19924;-69
2024/01/19 05:14:49;;;;;;;;;;;1.70;99.90;;;;;;5052037;28;19939;-73
2024/01/19 05:17:15;;;;;;;;;;;1.10;99.90;;;;;;5087126;28;19924;-73
2024/01/19 05:19:40;;;;;;;;;;;1.10;99.90;;;;;;5071713;28;20543;-73
2024/01/19 05:22:06;;;;;;;;;;;1.20;99.90;;;;;;5063718;28;19924;-76
2024/01/19 05:24:32;;;;;;;;;;;1.30;99.90;;;;;;5067286;28;19989;-76
2024/01/19 05:26:59;;;;;;;;;;;1.30;99.90;;;;;;5069760;28;20046;-76
2024/01/19 05:29:25;;;;;;;;;;;1.30;99.90;;;;;;5070184;28;20026;-76
2024/01/19 05:31:51;;;;;;;;;;;1.30;99.90;;;;;;5069119;28;20002;-77
2024/01/19 05:34:17;;;;;;;;;;;1.30;99.90;;;;;;5072531;28;19936;-76
2024/01/19 05:36:43;;;;;;;;;;;1.40;99.90;;;;;;5087915;28;20238;-77
2024/01/19 05:39:08;;;;;;;;;;;1.20;99.90;;;;;;5074332;28;19932;-76
2024/01/19 05:41:35;;;;;;;;;;;1.40;99.90;;;;;;5070320;28;19974;-76
2024/01/19 05:44:01;;;;;;;;;;;1.30;99.90;;;;;;5071151;28;19987;-75
2024/01/19 05:46:26;;;;;;;;;;;2.90;99.90;;;;;;5104503;28;19927;-76
2024/01/19 05:48:55;;;;;;;;;;;2.80;99.90;;;;;;5072323;28;19934;-76
2024/01/19 05:51:22;;;;;;;;;;;1.70;99.90;;;;;;5087664;28;20389;-76
2024/01/19 05:53:48;;;;;;;;;;;1.90;99.90;;;;;;5087154;28;19974;-75
2024/01/19 05:56:15;;;;;;;;;;;1.80;99.90;;;;;;5085196;28;19959;-77
2024/01/19 05:58:41;;;;;;;;;;;2.00;99.90;;;;;;5054072;28;19978;-76
2024/01/19 06:01:06;;;;;;;;;;;1.80;99.90;;;;;;5108302;28;19968;-76
2024/01/19 06:03:35;;;;;;;;;;;2.10;99.90;;;;;;5095004;28;19927;-75
2024/01/19 06:06:01;;;;;;;;;;;2.40;99.90;;;;;;5093445;28;19927;-76
2024/01/19 06:08:27;;;;;;;;;;;2.20;99.90;;;;;;5102075;28;19959;-75
2024/01/19 06:10:53;;;;;;;;;;;2.20;99.90;;;;;;5086817;28;19977;-75
2024/01/19 06:13:18;;;;;;;;;;;1.50;99.60;;;;;;5071191;28;20435;-76
2024/01/19 06:15:44;;;;;;;;;;;2.00;99.20;;;;;;5068791;28;19928;-77
2024/01/19 06:18:47;;;;;;;;;;;1.60;98.50;;;;;;5085763;28;20413;-76
2024/01/19 06:21:34;;;;;;;;;;;1.90;98.10;;;;;;5108061;28;19992;-76
2024/01/19 06:24:16;;;;;;;;;;;1.90;97.60;;;;;;5089419;28;20681;-76
2024/01/19 06:27:03;;;;;;;;;;;2.40;97.00;;;;;;5105023;28;19980;-73
2024/01/19 06:29:45;;;;;;;;;;;1.90;96.70;;;;;;5087100;28;19923;-77
2024/01/19 06:32:30;;;;;;;;;;;2.10;96.10;;;;;;5106130;28;19958;-74
2024/01/19 06:35:00;;;;;;;;;;;1.90;96.40;;;;;;5071933;28;20414;-73
2024/01/19 06:37:31;;;;;;;;;;;2.00;95.40;;;;;;5085350;28;19924;-74
2024/01/19 06:39:58;;;;;;;;;;;1.90;95.20;;;;;;5050030;28;20480;-73
2024/01/19 06:42:36;;;;;;;;;;;2.10;95.20;;;;;;5102633;28;20015;-74
2024/01/19 06:45:02;;;;;;;;;;;2.20;94.70;;;;;;5086771;28;19924;-74
2024/01/19 06:47:28;;;;;;;;;;;2.30;94.60;;;;;;5085170;28;19928;-74
2024/01/19 06:49:55;;;;;;;;;;;2.30;94.30;;;;;;5082806;28;19924;-73
2024/01/19 06:52:21;;;;;;;;;;;2.60;94.30;;;;;;5067601;28;19928;-77
2024/01/19 06:58:24;;;;;;;;;;;2.30;95.10;;;;;;5085551;27;19966;-77
2024/01/19 07:00:59;;;;;;;;;;;2.40;95.00;;;;;;5088126;28;19939;-77
2024/01/19 07:04:02;;;;;;;;;;;2.10;95.20;;;;;;5102261;27;19932;-76
2024/01/19 07:06:40;;;;;;;;;;;3.20;95.50;;;;;;5086092;27;19927;-76
2024/01/19 07:09:15;;;;;;;;;;;2.40;94.40;;;;;;5106959;27;19939;-77
2024/01/19 07:12:01;;;;;;;;;;;3.60;95.10;;;;;;5091462;28;19964;-77
2024/01/19 07:14:37;;;;;;;;;;;2.50;94.80;;;;;;5088718;28;19932;-76
2024/01/19 07:17:03;;;;;;;;;;;2.50;94.50;;;;;;5104496;28;19920;-73
2024/01/19 07:19:28;;;;;;;;;;;2.10;93.90;;;;;;5086037;28;19924;-72
2024/01/19 07:22:01;;;;;;;;;;;2.10;93.40;;;;;;5083304;28;19927;-75
2024/01/19 07:24:32;;;;;;;;;;;2.40;93.00;;;;;;5063745;28;19927;-73
2024/01/19 07:26:58;;;;;;;;;;;2.90;94.10;;;;;;5069711;28;19967;-73
2024/01/19 07:29:23;;;;;;;;;;;2.30;93.70;;;;;;5084981;28;20463;-73
2024/01/19 07:31:49;;;;;;;;;;;2.30;94.30;;;;;;5082337;27;19993;-73
2024/01/19 07:34:14;;;;;;;;;;;2.70;94.50;;;;;;5051426;28;20434;-73
2024/01/19 07:36:40;;;;;;;;;;;2.40;94.80;;;;;;5067629;28;19938;-73
2024/01/19 07:39:09;;;;;;;;;;;3.30;94.90;;;;;;5068231;28;20383;-73
2024/01/19 07:41:35;;;;;;;;;;;2.50;94.80;;;;;;5066676;28;19924;-73
2024/01/19 07:44:00;;;;;;;;;;;2.10;95.50;;;;;;5067993;28;19928;-73
2024/01/19 07:46:26;;;;;;;;;;;2.30;95.00;;;;;;5074217;28;20134;-73
2024/01/19 07:48:51;;;;;;;;;;;2.40;95.60;;;;;;5085082;28;19938;-73
2024/01/19 07:51:18;;;;;;;;;;;2.90;95.20;;;;;;5065974;28;19950;-73
2024/01/19 07:53:49;;;;;;;;;;;2.40;95.50;;;;;;5083143;28;19931;-73
2024/01/19 07:56:15;;;;;;;;;;;2.10;96.40;;;;;;5067668;28;19928;-73
2024/01/19 07:58:45;;;;;;;;;;;2.50;95.30;;;;;;5084188;28;20500;-73
2024/01/19 08:01:11;;;;;;;;;;;2.60;94.60;;;;;;5080162;28;19932;-73
2024/01/19 08:03:38;;;;;;;;;;;2.40;94.70;;;;;;5084066;28;19931;-73
2024/01/19 08:06:04;;;;;;;;;;;2.50;94.90;;;;;;5065793;28;20192;-73
2024/01/19 08:08:30;;;;;;;;;;;2.20;94.60;;;;;;5067129;28;20370;-72
2024/01/19 08:10:55;;;;;;;;;;;2.30;95.00;;;;;;5080975;28;19931;-70
2024/01/19 08:13:21;;;;;;;;;;;2.70;96.00;;;;;;5083561;28;19924;-73
2024/01/19 08:15:47;;;;;;;;;;;3.10;96.00;;;;;;5067341;28;20670;-73
2024/01/19 08:18:13;;;;;;;;;;;2.50;95.60;;;;;;5101178;27;20174;-72
2024/01/19 08:20:39;;;;;;;;;;;2.60;95.60;;;;;;5085360;28;19928;-72
2024/01/19 08:23:05;;;;;;;;;;;3.60;96.60;;;;;;5102650;27;19955;-72
2024/01/19 08:25:33;;;;;;;;;;;2.60;96.20;;;;;;5081898;28;22100;-72
2024/01/19 08:28:00;;;;;;;;;;;2.10;96.10;;;;;;5060876;28;19924;-73
2024/01/19 08:30:26;;;;;;;;;;;2.10;96.40;;;;;;5081317;27;19927;-72
2024/01/19 08:32:52;;;;;;;;;;;2.30;96.50;;;;;;5094637;28;20000;-73
2024/01/19 08:35:18;;;;;;;;;;;2.60;96.80;;;;;;5083843;28;20462;-73
2024/01/19 08:37:44;;;;;;;;;;;2.50;97.10;;;;;;5084119;28;19963;-72
2024/01/19 08:40:12;;;;;;;;;;;2.50;97.40;;;;;;5066686;27;19928;-72
2024/01/19 08:42:39;;;;;;;;;;;2.70;97.10;;;;;;5082670;27;19934;-72
2024/01/19 08:45:05;;;;;;;;;;;2.70;97.10;;;;;;5083239;28;19923;-72
2024/01/19 08:47:30;;;;;;;;;;;2.20;97.10;;;;;;5084675;28;20384;-73
2024/01/19 08:49:56;;;;;;;;;;;2.50;97.10;;;;;;5085411;28;19928;-72
2024/01/19 08:52:23;;;;;;;;;;;2.40;96.90;;;;;;5066731;28;19932;-72
2024/01/19 08:54:49;;;;;;;;;;;2.80;96.90;;;;;;5081564;28;19928;-72
2024/01/19 08:57:14;;;;;;;;;;;2.60;96.90;;;;;;5084704;27;19927;-73
2024/01/19 08:59:41;;;;;;;;;;;2.60;97.70;;;;;;5083018;28;20415;-73
2024/01/19 09:02:07;;;;;;;;;;;3.40;98.50;;;;;;5066609;28;19927;-72
2024/01/19 09:04:34;;;;;;;;;;;4.40;95.70;;;;;;5065057;28;19972;-73
2024/01/19 09:06:59;;;;;;;;;;;5.10;93.90;;;;;;5084605;28;20022;-73
2024/01/19 09:09:31;;;;;;;;;;;5.20;90.50;;;;;;5066309;28;20046;-73
2024/01/19 09:11:56;;;;;;;;;;;5.50;85.10;;;;;;5066495;28;19934;-73
2024/01/19 09:14:28;;;;;;;;;;;5.60;83.40;;;;;;5082069;28;20348;-73
2024/01/19 09:16:54;;;;;;;;;;;6.00;83.00;;;;;;5065927;28;20541;-73
2024/01/19 09:19:19;;;;;;;;;;;6.40;79.60;;;;;;5097605;27;20374;-74
2024/01/19 09:21:45;;;;;;;;;;;6.00;73.60;;;;;;5081548;28;19924;-73
2024/01/19 09:24:11;;;;;;;;;;;6.00;72.90;;;;;;5049660;28;20018;-73
2024/01/19 09:26:37;;;;;;;;;;;5.50;77.10;;;;;;5081282;28;19949;-73
2024/01/19 09:29:03;;;;;;;;;;;4.80;80.80;;;;;;5066561;28;20286;-73
2024/01/19 09:31:28;;;;;;;;;;;5.20;83.40;;;;;;5082814;28;20024;-73
2024/01/19 09:33:54;;;;;;;;;;;5.30;85.40;;;;;;5082717;27;19935;-73
2024/01/19 09:36:20;;;;;;;;;;;5.80;83.70;;;;;;5065708;28;19962;-72
2024/01/19 09:38:45;;;;;;;;;;;5.90;78.60;;;;;;5064960;28;19939;-73
2024/01/19 09:41:18;;;;;;;;;;;6.00;75.00;;;;;;5081018;28;20382;-73
2024/01/19 09:43:45;;;;;;;;;;;5.80;74.10;;;;;;5080572;28;19924;-73
2024/01/19 09:46:16;;;;;;;;;;;5.70;71.60;;;;;;5081190;28;19976;-74
2024/01/19 09:48:47;;;;;;;;;;;5.70;73.20;;;;;;5082342;28;19924;-73
2024/01/19 09:51:13;;;;;;;;;;;5.20;75.40;;;;;;5063936;28;19928;-73
2024/01/19 09:53:42;;;;;;;;;;;5.00;81.30;;;;;;5064939;28;19980;-73
2024/01/19 09:56:09;;;;;;;;;;;4.90;83.90;;;;;;5080895;28;20468;-73
2024/01/19 09:58:35;;;;;;;;;;;4.70;84.20;;;;;;5081122;28;20050;-74
2024/01/19 10:01:01;;;;;;;;;;;4.70;84.90;;;;;;5080724;28;20354;-74
2024/01/19 10:03:29;;;;;;;;;;;5.00;85.20;;;;;;5099712;28;19968;-73
2024/01/19 10:05:55;;;;;;;;;;;5.30;84.50;;;;;;5083059;28;19996;-73
2024/01/19 10:08:21;;;;;;;;;;;5.70;84.10;;;;;;5063558;28;19928;-73
2024/01/19 10:10:49;;;;;;;;;;;5.20;85.00;;;;;;5064790;28;20034;-78
2024/01/19 10:13:16;;;;;;;;;;;5.70;80.70;;;;;;5084609;28;20026;-82
2024/01/19 10:15:45;;;;;;;;;;;5.90;77.50;;;;;;5053462;28;20279;-78
2024/01/19 10:18:11;;;;;;;;;;;6.20;72.20;;;;;;5093964;28;19934;-74
2024/01/19 10:20:38;;;;;;;;;;;6.40;67.80;;;;;;5082429;28;20267;-75
2024/01/19 10:23:21;;;;;;;;;;;6.70;63.50;;;;;;5082450;28;20627;-76
2024/01/19 10:25:47;;;;;;;;;;;6.50;60.30;;;;;;5097213;28;19970;-77
2024/01/19 10:28:29;;;;;;;;;;;6.00;65.30;;;;;;5067310;28;20416;-77
2024/01/19 10:31:14;;;;;;;;;;;6.90;69.40;;;;;;5086624;28;19928;-77
2024/01/19 10:33:55;;;;;;;;;;;5.80;74.00;;;;;;5085930;28;19941;-76
2024/01/19 10:36:22;;;;;;;;;;;6.20;75.10;;;;;;5086230;28;20337;-76
2024/01/19 10:38:48;;;;;;;;;;;6.70;71.80;;;;;;5083254;28;19977;-76
2024/01/19 10:41:15;;;;;;;;;;;7.60;63.30;;;;;;5086406;28;19932;-78
2024/01/19 10:43:50;;;;;;;;;;;6.30;64.80;;;;;;5076225;27;20014;-76
2024/01/19 10:46:26;;;;;;;;;;;6.40;71.10;;;;;;5105608;28;19934;-77
2024/01/19 10:48:53;;;;;;;;;;;6.90;67.80;;;;;;5103436;27;20407;-77
2024/01/19 10:51:19;;;;;;;;;;;7.50;59.60;;;;;;5087755;28;19927;-79
2024/01/19 10:53:46;;;;;;;;;;;7.80;53.90;;;;;;5083194;28;20400;-77
2024/01/19 10:56:17;;;;;;;;;;;8.20;51.40;;;;;;5082966;28;19931;-76
2024/01/19 10:58:43;;;;;;;;;;;8.20;41.70;;;;;;5084155;28;20523;-73
2024/01/19 11:01:15;;;;;;;;;;;7.80;43.60;;;;;;5083126;28;19936;-73
2024/01/19 11:03:43;;;;;;;;;;;7.70;48.50;;;;;;5084849;28;19932;-73
2024/01/19 11:06:09;;;;;;;;;;;7.60;44.80;;;;;;5085181;28;20032;-78
2024/01/19 11:08:36;;;;;;;;;;;7.10;50.40;;;;;;5073194;28;19927;-73
2024/01/19 11:11:04;;;;;;;;;;;5.00;59.80;;;;;;5083632;28;19956;-74
2024/01/19 11:13:51;;;;;;;;;;;6.00;64.30;;;;;;5102542;27;19965;-77
2024/01/19 11:16:57;;;;;;;;;;;5.40;72.60;;;;;;5102752;27;20059;-75
2024/01/19 11:19:29;;;;;;;;;;;5.30;78.30;;;;;;5081267;28;19928;-75
2024/01/19 11:22:19;;;;;;;;;;;5.00;81.60;;;;;;5070003;28;19986;-75
2024/01/19 11:28:56;;;;;;;;;;;6.10;86.60;;;;;;5068987;28;19932;-77
2024/01/19 11:31:25;;;;;;;;;;;4.20;86.40;;;;;;5084468;28;19939;-73
2024/01/19 11:33:54;;;;;;;;;;;4.50;87.60;;;;;;5106773;27;19935;-73
2024/01/19 11:36:42;;;;;;;;;;;4.50;87.70;;;;;;5073572;27;19971;-73
2024/01/19 11:39:14;;;;;;;;;;;4.30;88.00;;;;;;5069319;28;20356;-73
2024/01/19 11:41:43;;;;;;;;;;;4.20;88.10;;;;;;5074493;28;20027;-73
2024/01/19 11:44:12;;;;;;;;;;;4.10;88.60;;;;;;5074364;28;19927;-74
2024/01/19 11:46:42;;;;;;;;;;;4.10;88.90;;;;;;5072462;28;20050;-73
2024/01/19 11:49:08;;;;;;;;;;;4.00;89.00;;;;;;5111093;27;20011;-72
2024/01/19 11:51:34;;;;;;;;;;;2.60;88.60;;;;;;5088844;28;20699;-73
2024/01/19 11:54:01;;;;;;;;;;;4.00;89.10;;;;;;5091790;28;19935;-73
2024/01/19 11:56:27;;;;;;;;;;;4.30;89.80;;;;;;5075379;28;19966;-72
2024/01/19 11:58:53;;;;;;;;;;;3.70;89.80;;;;;;5088353;28;19928;-72
2024/01/19 12:01:20;;;;;;;;;;;3.80;90.00;;;;;;5089935;28;19941;-73
2024/01/19 12:03:50;;;;;;;;;;;4.00;90.00;;;;;;5091536;28;19927;-73
2024/01/19 12:06:16;;;;;;;;;;;4.20;90.10;;;;;;5089533;28;19932;-73
2024/01/19 12:08:41;;;;;;;;;;;4.20;90.00;;;;;;5071161;28;19977;-73
2024/01/19 12:11:26;;;;;;;;;;;4.20;90.20;;;;;;5089491;27;19924;-73
2024/01/19 12:13:52;;;;;;;;;;;3.80;89.80;;;;;;5073670;28;19939;-74
2024/01/19 12:16:22;;;;;;;;;;;4.20;90.00;;;;;;5109157;28;19923;-71
2024/01/19 12:18:54;;;;;;;;;;;4.20;90.00;;;;;;5089477;28;19924;-73
2024/01/19 12:21:20;;;;;;;;;;;4.40;89.60;;;;;;5090354;28;19927;-74
2024/01/19 12:23:45;;;;;;;;;;;4.20;89.90;;;;;;5088052;28;19930;-73
2024/01/19 12:26:11;;;;;;;;;;;4.00;90.00;;;;;;5086715;28;19928;-73
2024/01/19 12:28:36;;;;;;;;;;;4.40;90.40;;;;;;5087184;28;19928;-73
2024/01/19 12:31:02;;;;;;;;;;;4.20;90.30;;;;;;5086777;28;20267;-73
2024/01/19 12:33:29;;;;;;;;;;;4.30;90.40;;;;;;5087089;28;19927;-72
2024/01/19 12:36:02;;;;;;;;;;;3.90;90.40;;;;;;5086798;28;19928;-73
2024/01/19 12:38:27;;;;;;;;;;;4.30;90.70;;;;;;5068076;28;19931;-72
2024/01/19 12:40:56;;;;;;;;;;;4.20;91.00;;;;;;5101723;27;19932;-73
2024/01/19 12:43:22;;;;;;;;;;;4.20;91.30;;;;;;5087755;28;19935;-73
2024/01/19 12:45:47;;;;;;;;;;;4.20;91.50;;;;;;5085294;28;19931;-73
2024/01/19 12:48:15;;;;;;;;;;;3.80;91.90;;;;;;5088260;28;19931;-73
2024/01/19 12:50:41;;;;;;;;;;;4.10;92.40;;;;;;5088031;27;19924;-73
2024/01/19 12:53:08;;;;;;;;;;;3.80;92.50;;;;;;5101734;27;20031;-76
2024/01/19 12:55:35;;;;;;;;;;;4.20;92.90;;;;;;5090827;28;19927;-75
2024/01/19 12:58:00;;;;;;;;;;;3.90;93.10;;;;;;5054799;28;19927;-76
2024/01/19 13:00:27;;;;;;;;;;;4.00;93.30;;;;;;5069999;28;19985;-76
2024/01/19 13:02:55;;;;;;;;;;;3.60;93.30;;;;;;5086810;28;20021;-76
2024/01/19 13:05:31;;;;;;;;;;;4.20;93.60;;;;;;5085728;27;19928;-76
2024/01/19 13:08:01;;;;;;;;;;;4.10;93.90;;;;;;5087713;28;19935;-77
2024/01/19 13:10:27;;;;;;;;;;;4.10;93.80;;;;;;5103773;27;19931;-77
2024/01/19 13:13:03;;;;;;;;;;;4.40;94.40;;;;;;5087206;28;19935;-77
2024/01/19 13:15:30;;;;;;;;;;;3.60;94.10;;;;;;5086082;28;19927;-76
2024/01/19 13:18:12;;;;;;;;;;;4.50;94.60;;;;;;5084691;28;19924;-74
2024/01/19 13:20:39;;;;;;;;;;;4.10;94.80;;;;;;5084205;27;20765;-73
2024/01/19 13:23:06;;;;;;;;;;;3.80;95.00;;;;;;5068684;28;19979;-73
2024/01/19 13:25:31;;;;;;;;;;;4.40;95.30;;;;;;5085166;28;19924;-73
2024/01/19 13:27:57;;;;;;;;;;;3.60;95.20;;;;;;5081392;28;20010;-73
2024/01/19 13:30:27;;;;;;;;;;;4.40;95.50;;;;;;5088381;28;20018;-73
2024/01/19 13:32:52;;;;;;;;;;;4.40;95.50;;;;;;5101273;28;19931;-73
2024/01/19 13:35:18;;;;;;;;;;;3.80;95.40;;;;;;5069509;28;19932;-72
2024/01/19 13:37:44;;;;;;;;;;;3.80;95.30;;;;;;5099421;28;19932;-73
2024/01/19 13:40:11;;;;;;;;;;;3.90;94.90;;;;;;5083973;28;20057;-75
2024/01/19 13:42:39;;;;;;;;;;;3.90;94.60;;;;;;5084080;28;19928;-76
2024/01/19 13:45:09;;;;;;;;;;;4.10;94.30;;;;;;5099733;28;19924;-76
2024/01/19 13:47:35;;;;;;;;;;;5.70;94.50;;;;;;5065743;28;20013;-76
2024/01/19 13:50:04;;;;;;;;;;;4.20;94.10;;;;;;5102298;28;20390;-75
2024/01/19 13:52:31;;;;;;;;;;;4.00;94.00;;;;;;5087420;28;20045;-75
2024/01/19 13:55:02;;;;;;;;;;;4.30;94.30;;;;;;5100852;28;20041;-75
2024/01/19 13:57:28;;;;;;;;;;;3.80;94.20;;;;;;5086738;28;20023;-75
2024/01/19 14:00:00;;;;;;;;;;;4.10;94.60;;;;;;5068654;28;19939;-76
2024/01/19 14:02:26;;;;;;;;;;;3.80;94.70;;;;;;5086257;28;20364;-76
2024/01/19 14:04:53;;;;;;;;;;;3.80;95.00;;;;;;5086113;28;20401;-75
2024/01/19 14:07:20;;;;;;;;;;;4.00;95.10;;;;;;5085055;28;19935;-75
2024/01/19 14:09:47;;;;;;;;;;;3.80;95.30;;;;;;5099087;28;19974;-75
2024/01/19 14:12:14;;;;;;;;;;;5.00;95.60;;;;;;5065469;28;20276;-76
2024/01/19 14:14:40;;;;;;;;;;;4.10;95.70;;;;;;5068527;28;19927;-75
2024/01/19 14:17:06;;;;;;;;;;;4.10;95.80;;;;;;5094441;28;19938;-76
2024/01/19 14:19:32;;;;;;;;;;;4.10;96.10;;;;;;5084811;28;20699;-76
2024/01/19 14:21:57;;;;;;;;;;;4.00;96.30;;;;;;5067617;28;19931;-75
2024/01/19 14:24:24;;;;;;;;;;;4.10;96.40;;;;;;5066770;28;20282;-75
2024/01/19 14:26:50;;;;;;;;;;;4.00;96.60;;;;;;5067646;28;19932;-77
2024/01/19 14:29:16;;;;;;;;;;;4.70;96.90;;;;;;5085551;28;19996;-76
2024/01/19 14:31:42;;;;;;;;;;;4.00;96.90;;;;;;5081170;28;20027;-76
2024/01/19 14:34:08;;;;;;;;;;;3.90;97.00;;;;;;5065776;28;20946;-75
2024/01/19 14:36:34;;;;;;;;;;;4.00;97.10;;;;;;5104109;28;19932;-75
2024/01/19 14:39:00;;;;;;;;;;;4.00;97.40;;;;;;5085241;28;20092;-75
2024/01/19 14:41:26;;;;;;;;;;;4.30;97.70;;;;;;5082103;28;19930;-72